Time;durP1;ratioP1;P1;durP2;ratioP2;P2;SDS_P1;SDS_P2;PMS_P1;PMS_P2;Temp;Humidity;BMP_temperature;BMP_pressure;BME280_temperature;BME280_humidity;BME280_pressure;Samples;Min_cycle;Max_cycle;Signal;HPM_P1;HPM_P2
2022/04/21 00:00:11;;;;;;;10.90;6.68;;;;;;;4.09;100.00;100571.94;5051678;28;20452;-81
2022/04/21 00:02:37;;;;;;;9.13;6.95;;;;;;;4.19;100.00;100581.97;5034438;28;20392;-79
2022/04/21 00:05:03;;;;;;;8.50;6.22;;;;;;;4.05;100.00;100578.53;5052285;28;20029;-79
2022/04/21 00:07:29;;;;;;;8.10;6.07;;;;;;;4.00;100.00;100580.78;5052129;28;20028;-81
2022/04/21 00:09:55;;;;;;;9.07;6.30;;;;;;;4.03;100.00;100580.09;5052090;28;20020;-79
2022/04/21 00:12:21;;;;;;;7.80;5.90;;;;;;;4.17;100.00;100589.50;5052252;28;20041;-79
2022/04/21 00:14:46;;;;;;;7.68;6.15;;;;;;;4.02;100.00;100584.31;5051654;28;20017;-80
2022/04/21 00:17:11;;;;;;;10.52;6.22;;;;;;;3.79;100.00;100587.03;5052130;28;20028;-78
2022/04/21 00:19:37;;;;;;;8.25;6.70;;;;;;;3.76;100.00;100576.63;5051685;28;20033;-78
2022/04/21 00:24:48;;;;;;;7.63;6.43;;;;;;;3.76;100.00;100554.50;5052474;28;20182;-80
2022/04/21 00:27:13;;;;;;;7.32;6.03;;;;;;;4.01;100.00;100590.22;5050554;28;20488;-78
2022/04/21 00:29:39;;;;;;;9.77;7.40;;;;;;;4.11;100.00;100589.16;5051740;28;20158;-80
2022/04/21 00:32:05;;;;;;;8.65;6.70;;;;;;;4.24;100.00;100595.94;5052274;28;20411;-79
2022/04/21 00:34:34;;;;;;;8.13;6.57;;;;;;;4.28;100.00;100600.44;5051898;28;20092;-80
2022/04/21 00:37:00;;;;;;;7.45;5.80;;;;;;;4.27;100.00;100606.34;5051821;28;20027;-81
2022/04/21 00:39:26;;;;;;;7.68;5.72;;;;;;;4.33;100.00;100608.41;5051480;28;20021;-79
2022/04/21 00:42:01;;;;;;;7.63;5.68;;;;;;;4.16;100.00;100607.31;5051325;28;20021;-78
2022/04/21 00:44:27;;;;;;;7.85;5.90;;;;;;;3.92;100.00;100592.16;5051528;28;20114;-77
2022/04/21 00:47:02;;;;;;;9.45;6.15;;;;;;;3.93;100.00;100605.84;5033546;28;20017;-80
2022/04/21 00:49:30;;;;;;;9.60;6.13;;;;;;;3.77;100.00;100609.03;5051645;28;20376;-79
2022/04/21 00:51:56;;;;;;;11.32;7.53;;;;;;;3.58;100.00;100619.66;5051750;28;20110;-77
2022/04/21 00:54:22;;;;;;;12.52;8.30;;;;;;;3.45;100.00;100621.41;5051691;28;20017;-79
2022/04/21 00:56:48;;;;;;;11.20;7.03;;;;;;;3.31;100.00;100610.25;5052599;28;20024;-78
2022/04/21 00:59:14;;;;;;;13.98;9.30;;;;;;;3.24;100.00;100592.78;5052357;28;20013;-78
2022/04/21 01:04:24;;;;;;;12.18;8.38;;;;;;;3.48;100.00;100597.78;5052509;28;20035;-80
2022/04/21 01:06:54;;;;;;;11.93;8.30;;;;;;;3.37;100.00;100604.69;5052027;28;20721;-78
2022/04/21 01:09:19;;;;;;;13.32;8.98;;;;;;;3.42;100.00;100589.69;5052156;28;20016;-78
2022/04/21 01:11:46;;;;;;;15.00;9.13;;;;;;;3.51;100.00;100608.16;5051665;28;20059;-78
2022/04/21 01:14:14;;;;;;;13.98;8.77;;;;;;;3.63;100.00;100618.34;5051815;28;20031;-78
2022/04/21 01:16:39;;;;;;;11.90;8.50;;;;;;;3.45;100.00;100583.13;5051975;28;20024;-78
2022/04/21 01:19:05;;;;;;;10.55;7.40;;;;;;;3.66;100.00;100609.19;5051705;28;20032;-80
2022/04/21 01:21:30;;;;;;;10.30;7.45;;;;;;;3.59;100.00;100591.72;5051613;28;20378;-80
2022/04/21 01:23:56;;;;;;;11.38;7.03;;;;;;;3.68;100.00;100617.84;5051701;28;20029;-81
2022/04/21 01:26:24;;;;;;;10.90;7.65;;;;;;;3.51;100.00;100608.16;5051783;28;20756;-81
2022/04/21 01:28:52;;;;;;;11.25;7.57;;;;;;;3.28;100.00;100573.44;5051505;28;20086;-77
2022/04/21 01:31:24;;;;;;;12.15;7.35;;;;;;;3.64;100.00;100615.88;5033708;28;20028;-78
2022/04/21 01:33:50;;;;;;;9.82;7.63;;;;;;;3.67;100.00;100605.84;5051289;28;20021;-79
2022/04/21 01:36:16;;;;;;;8.50;6.68;;;;;;;3.80;100.00;100614.34;5051560;28;20108;-78
2022/04/21 01:41:25;;;;;;;9.32;7.40;;;;;;;3.69;100.00;100577.91;5051654;28;20035;-77
2022/04/21 01:43:51;;;;;;;11.40;7.72;;;;;;;3.83;100.00;100623.09;5050988;28;20021;-78
2022/04/21 01:46:16;;;;;;;9.18;7.20;;;;;;;3.60;100.00;100584.94;5051345;28;20017;-80
2022/04/21 01:48:42;;;;;;;11.32;8.43;;;;;;;3.69;100.00;100606.84;5033375;28;20025;-78
2022/04/21 01:51:08;;;;;;;11.82;7.63;;;;;;;3.74;100.00;100617.38;5051043;28;20082;-78
2022/04/21 01:53:33;;;;;;;10.70;7.90;;;;;;;3.67;100.00;100621.16;5051276;28;20033;-77
2022/04/21 01:55:59;;;;;;;11.88;8.45;;;;;;;3.55;100.00;100612.69;5051122;28;20021;-78
2022/04/21 01:58:24;;;;;;;12.07;8.30;;;;;;;3.62;100.00;100617.44;5051180;28;20028;-79
2022/04/21 02:00:50;;;;;;;10.60;7.63;;;;;;;3.32;100.00;100562.66;5050662;28;20028;-77
2022/04/21 02:03:16;;;;;;;12.80;8.35;;;;;;;3.49;100.00;100597.88;5049880;28;20533;-74
2022/04/21 02:05:42;;;;;;;11.93;8.95;;;;;;;3.47;100.00;100606.19;5050130;28;20021;-76
2022/04/21 02:08:07;;;;;;;16.30;10.30;;;;;;;3.47;100.00;100601.97;5050391;28;20103;-75
2022/04/21 02:10:33;;;;;;;16.70;9.10;;;;;;;3.45;100.00;100590.78;5050324;28;20145;-76
2022/04/21 02:12:59;;;;;;;12.60;8.70;;;;;;;3.43;100.00;100596.53;5050245;28;20076;-76
2022/04/21 02:15:25;;;;;;;12.85;8.57;;;;;;;3.25;100.00;100591.97;5050007;28;20029;-75
2022/04/21 02:17:50;;;;;;;13.13;8.07;;;;;;;3.21;100.00;100598.53;5049635;28;20449;-75
2022/04/21 02:20:17;;;;;;;10.63;7.70;;;;;;;3.16;100.00;100599.88;5049453;28;20040;-75
2022/04/21 02:22:45;;;;;;;13.45;8.27;;;;;;;3.04;100.00;100588.81;5049644;28;20055;-75
2022/04/21 02:25:13;;;;;;;10.20;7.73;;;;;;;2.85;100.00;100554.41;5049792;28;20029;-75
2022/04/21 02:27:41;;;;;;;9.55;7.45;;;;;;;2.85;100.00;100566.28;5049527;28;20342;-75
2022/04/21 02:30:08;;;;;;;13.88;9.30;;;;;;;2.81;100.00;100569.41;5049566;28;20025;-76
2022/04/21 02:32:34;;;;;;;17.10;9.30;;;;;;;2.46;100.00;100524.50;5030761;28;20040;-76
2022/04/21 02:34:59;;;;;;;15.80;10.30;;;;;;;2.79;100.00;100593.91;5049310;28;20112;-75
2022/04/21 02:37:25;;;;;;;11.30;8.18;;;;;;;2.39;100.00;100547.00;5050566;28;20037;-75
2022/04/21 02:39:51;;;;;;;9.93;7.97;;;;;;;2.03;100.00;100487.56;5050695;28;20687;-76
2022/04/21 02:42:20;;;;;;;10.02;7.45;;;;;;;2.57;100.00;100572.00;5050541;28;20060;-76
2022/04/21 02:44:46;;;;;;;10.27;7.93;;;;;;;2.35;100.00;100567.03;5049697;28;20033;-76
2022/04/21 02:47:12;;;;;;;11.52;8.55;;;;;;;2.42;100.00;100557.38;5032405;28;20036;-75
2022/04/21 02:49:38;;;;;;;11.65;8.52;;;;;;;2.56;100.00;100572.78;5052090;28;20017;-75
2022/04/21 02:52:09;;;;;;;12.67;8.93;;;;;;;2.58;100.00;100577.19;5054639;28;20151;-76
2022/04/21 02:57:22;;;;;;;11.90;8.80;;;;;;;2.68;100.00;100537.97;5053986;28;20070;-76
2022/04/21 02:59:52;;;;;;;13.27;8.35;;;;;;;2.65;100.00;100514.78;5053814;28;20744;-76
2022/04/21 03:02:19;;;;;;;10.48;8.45;;;;;;;2.86;100.00;100540.00;5054421;28;20021;-76
2022/04/21 03:04:45;;;;;;;11.93;8.57;;;;;;;2.97;100.00;100571.34;5054280;28;20392;-76
2022/04/21 03:07:13;;;;;;;11.18;8.57;;;;;;;2.92;100.00;100548.06;5054285;28;20099;-76
2022/04/21 03:09:40;;;;;;;11.43;8.70;;;;;;;2.79;100.00;100530.16;5054353;28;20025;-76
2022/04/21 03:12:07;;;;;;;17.77;11.32;;;;;;;3.05;100.00;100570.19;5069204;28;20084;-76
2022/04/21 03:14:37;;;;;;;17.05;12.18;;;;;;;2.66;100.00;100515.69;5074013;28;20056;-75
2022/04/21 03:17:07;;;;;;;19.60;12.20;;;;;;;3.01;100.00;100574.19;5073505;28;20032;-76
2022/04/21 03:19:33;;;;;;;19.00;11.38;;;;;;;3.02;100.00;100564.91;5073794;28;20468;-76
2022/04/21 03:24:43;;;;;;;12.18;9.48;;;;;;;3.02;100.00;100567.44;5073710;28;20031;-76
2022/04/21 03:27:08;;;;;;;12.68;10.00;;;;;;;3.14;100.00;100569.94;5073896;28;20024;-76
2022/04/21 03:29:39;;;;;;;16.73;10.63;;;;;;;3.16;100.00;100559.06;5055822;28;20537;-76
2022/04/21 03:32:09;;;;;;;14.00;11.55;;;;;;;3.24;100.00;100568.13;5056376;28;20069;-76
2022/04/21 03:34:37;;;;;;;17.05;11.50;;;;;;;3.02;100.00;100537.72;5073752;28;20105;-76
2022/04/21 03:37:02;;;;;;;14.45;10.95;;;;;;;3.14;100.00;100572.50;5055956;28;20036;-76
2022/04/21 03:39:28;;;;;;;14.48;9.95;;;;;;;3.17;100.00;100570.16;5073468;28;20024;-76
2022/04/21 03:41:53;;;;;;;14.15;10.35;;;;;;;3.10;100.00;100551.00;5073532;28;20012;-76
2022/04/21 03:44:22;;;;;;;13.82;10.10;;;;;;;3.20;100.00;100567.81;5055679;28;20025;-76
2022/04/21 03:46:49;;;;;;;13.90;10.40;;;;;;;3.20;100.00;100565.25;5073538;28;20028;-76
2022/04/21 03:49:15;;;;;;;13.27;9.38;;;;;;;3.06;100.00;100577.94;5072975;28;20036;-76
2022/04/21 03:51:41;;;;;;;13.50;8.90;;;;;;;2.62;100.00;100592.69;5073439;28;20052;-76
2022/04/21 03:54:07;;;;;;;12.43;8.70;;;;;;;2.45;100.00;100578.78;5072996;28;20451;-76
2022/04/21 03:56:33;;;;;;;12.48;8.85;;;;;;;2.67;100.00;100583.75;5073596;28;20378;-76
2022/04/21 03:58:59;;;;;;;14.18;9.43;;;;;;;2.75;100.00;100586.03;5073457;28;20107;-77
2022/04/21 04:01:24;;;;;;;11.70;7.85;;;;;;;2.60;100.00;100592.59;5072022;28;20099;-76
2022/04/21 04:03:50;;;;;;;12.80;9.40;;;;;;;2.32;100.00;100561.72;5073473;28;20032;-76
2022/04/21 04:11:44;;;;;;;13.63;9.27;;;;;;;2.22;100.00;100594.19;5071589;28;20110;-75
2022/04/21 04:14:09;;;;;;;13.18;9.35;;;;;;;2.13;100.00;100555.31;5052932;28;20029;-75
2022/04/21 04:16:36;;;;;;;13.02;9.18;;;;;;;2.43;100.00;100583.78;5064982;28;20028;-75
2022/04/21 04:19:08;;;;;;;17.60;10.02;;;;;;;2.57;100.00;100584.75;5072958;28;20082;-76
2022/04/21 04:21:38;;;;;;;15.45;10.23;;;;;;;2.46;100.00;100545.75;5054765;28;20024;-75
2022/04/21 04:24:03;;;;;;;;;;;;;;;2.81;100.00;100592.34;5073247;28;20032;-76
2022/04/21 04:26:29;;;;;;;14.38;10.65;;;;;;;2.84;100.00;100590.00;5073165;28;19985;-76
2022/04/21 04:28:54;;;;;;;15.40;10.27;;;;;;;2.93;100.00;100598.31;5072900;28;20085;-75
2022/04/21 04:31:20;;;;;;;18.90;10.20;;;;;;;2.97;100.00;100602.84;5072343;28;20127;-75
2022/04/21 04:33:45;;;;;;;14.45;10.48;;;;;;;3.05;100.00;100590.59;5072732;28;20517;-75
2022/04/21 04:36:13;;;;;;;14.70;9.95;;;;;;;3.05;100.00;100586.41;5054611;28;20024;-75
2022/04/21 04:38:39;;;;;;;15.45;10.00;;;;;;;3.24;100.00;100596.19;5072725;28;20032;-75
2022/04/21 04:43:50;;;;;;;15.35;9.85;;;;;;;3.01;100.00;100558.03;5057183;28;20411;-75
2022/04/21 04:49:00;;;;;;;12.88;9.48;;;;;;;3.10;100.00;100591.78;5052811;28;20475;-76
2022/04/21 04:51:26;;;;;;;17.42;11.05;;;;;;;2.98;100.00;100580.75;5052322;28;20025;-76
2022/04/21 04:53:53;;;;;;;14.18;10.68;;;;;;;3.28;100.00;100604.94;5052159;28;20017;-77
2022/04/21 04:56:21;;;;;;;12.82;9.55;;;;;;;3.32;100.00;100596.72;5052160;28;20024;-76
2022/04/21 04:58:47;;;;;;;12.27;9.45;;;;;;;3.42;100.00;100594.81;5051980;28;20024;-76
2022/04/21 05:01:12;;;;;;;11.88;9.30;;;;;;;3.47;100.00;100585.78;5028226;28;20377;-77
2022/04/21 05:03:39;;;;;;;12.85;10.40;;;;;;;3.47;100.00;100565.38;5007951;28;20736;-75
2022/04/21 05:06:05;;;;;;;12.75;10.13;;;;;;;3.74;100.00;100599.50;5030840;28;20491;-75
2022/04/21 05:08:30;;;;;;;12.85;9.82;;;;;;;3.70;100.00;100588.19;5031947;28;20018;-75
2022/04/21 05:10:56;;;;;;;13.18;10.10;;;;;;;3.84;100.00;100614.66;5031632;28;20080;-75
2022/04/21 05:13:21;;;;;;;13.50;10.20;;;;;;;3.80;100.00;100599.00;4996118;28;20052;-75
2022/04/21 05:15:48;;;;;;;13.48;10.23;;;;;;;3.83;100.00;100599.22;5032335;28;20021;-75
2022/04/21 05:18:14;;;;;;;12.85;9.98;;;;;;;3.85;100.00;100595.09;5031974;28;20388;-75
2022/04/21 05:20:39;;;;;;;12.60;10.43;;;;;;;3.92;100.00;100601.50;5046001;28;20040;-76
2022/04/21 05:23:06;;;;;;;16.17;12.15;;;;;;;3.77;100.00;100563.06;5031513;28;20029;-75
2022/04/21 05:25:36;;;;;;;19.60;13.68;;;;;;;4.10;100.00;100617.13;5031492;28;20021;-75
2022/04/21 05:28:02;;;;;;;43.88;26.75;;;;;;;4.18;100.00;100610.88;5039726;28;20107;-75
2022/04/21 05:33:14;;;;;;;48.28;25.33;;;;;;;4.37;100.00;100607.81;5045101;28;20145;-76
2022/04/21 05:35:40;;;;;;;21.75;14.23;;;;;;;4.51;100.00;100609.59;5015670;28;20044;-76
2022/04/21 05:38:06;;;;;;;128.90;64.65;;;;;;;4.52;100.00;100598.59;5049366;28;20029;-76
2022/04/21 05:40:32;;;;;;;31.73;21.73;;;;;;;4.69;100.00;100606.41;5031123;28;20025;-75
2022/04/21 05:43:00;;;;;;;22.35;14.95;;;;;;;4.82;100.00;100606.41;5031452;28;20033;-75
2022/04/21 05:45:27;;;;;;;24.47;16.93;;;;;;;4.89;100.00;100594.00;5031656;28;20032;-77
2022/04/21 05:47:54;;;;;;;14.55;11.48;;;;;;;4.88;100.00;100608.44;5031355;28;20108;-76
2022/04/21 05:50:19;;;;;;;16.00;12.18;;;;;;;5.10;100.00;100610.66;5031165;28;20028;-77
2022/04/21 05:52:50;;;;;;;13.50;11.60;;;;;;;5.14;100.00;100598.94;5057055;28;20013;-76
2022/04/21 05:55:16;;;;;;;13.77;10.88;;;;;;;5.35;100.00;100609.59;5067814;28;20028;-77
2022/04/21 05:57:43;;;;;;;12.52;10.68;;;;;;;4.96;100.00;100571.44;5070335;28;20028;-78
2022/04/21 06:00:09;;;;;;;11.88;10.38;;;;;;;5.32;100.00;100615.41;5051397;28;20470;-77
2022/04/21 06:02:37;;;;;;;16.85;14.07;;;;;;;5.57;100.00;100611.75;5069930;28;20032;-77
2022/04/21 06:05:03;;;;;;;13.43;10.30;;;;;;;5.52;100.00;100625.97;5070105;28;20032;-76
2022/04/21 06:07:28;;;;;;;12.90;10.20;;;;;;;5.69;100.00;100621.81;5070321;28;20031;-77
2022/04/21 06:09:54;;;;;;;12.68;10.43;;;;;;;5.78;100.00;100619.81;5069996;28;20020;-77
2022/04/21 06:12:19;;;;;;;13.85;10.80;;;;;;;5.67;100.00;100591.00;5051531;28;20048;-75
2022/04/21 06:14:45;;;;;;;51.13;34.55;;;;;;;5.91;100.00;100623.09;5070170;28;20024;-75
2022/04/21 06:17:10;;;;;;;13.70;11.23;;;;;;;6.09;100.00;100626.75;5069844;28;20027;-75
2022/04/21 06:19:36;;;;;;;15.68;9.95;;;;;;;6.11;100.00;100630.28;5069932;28;20037;-75
2022/04/21 06:22:02;;;;;;;12.25;9.95;;;;;;;5.94;100.00;100606.22;5069584;28;20025;-76
2022/04/21 06:24:29;;;;;;;11.52;8.95;;;;;;;6.26;100.00;100635.41;5068980;28;20490;-77
2022/04/21 06:26:54;;;;;;;13.68;11.55;;;;;;;6.36;100.00;100634.25;5069672;28;20078;-76
2022/04/21 06:29:20;;;;;;;11.93;9.85;;;;;;;6.12;100.00;100610.69;5069781;28;20021;-76
2022/04/21 06:31:45;;;;;;;14.35;11.68;;;;;;;6.36;100.00;100635.94;5069623;28;20453;-76
2022/04/21 06:34:11;;;;;;;14.27;10.07;;;;;;;6.43;100.00;100638.94;5069939;28;20060;-77
2022/04/21 06:36:37;;;;;;;10.85;9.25;;;;;;;6.46;100.00;100638.22;5068092;28;20078;-76
2022/04/21 06:39:03;;;;;;;10.77;9.15;;;;;;;6.52;100.00;100623.16;5067793;28;20486;-76
2022/04/21 06:41:29;;;;;;;12.90;10.20;;;;;;;6.64;100.00;100633.22;5051587;28;20025;-76
2022/04/21 06:49:22;;;;;;;12.50;9.25;;;;;;;6.73;100.00;100640.53;5057398;28;20138;-75
2022/04/21 06:51:48;;;;;;;13.80;10.68;;;;;;;6.82;100.00;100633.34;5063623;28;20016;-75
2022/04/21 06:54:13;;;;;;;11.43;8.88;;;;;;;6.76;100.00;100627.88;5069679;28;20418;-76
2022/04/21 06:56:38;;;;;;;12.63;9.55;;;;;;;6.86;100.00;100619.88;5051530;28;20020;-75
2022/04/21 06:59:05;;;;;;;10.43;8.52;;;;;;;6.80;100.00;100606.72;5069149;28;20021;-76
2022/04/21 07:01:31;;;;;;;10.95;8.77;;;;;;;6.86;100.00;100612.19;5063608;28;20067;-76
2022/04/21 07:03:56;;;;;;;10.95;8.73;;;;;;;6.93;100.00;100604.03;5054063;28;20052;-76
2022/04/21 07:06:22;;;;;;;13.95;10.05;;;;;;;6.94;100.00;100582.69;5066486;28;20456;-76
2022/04/21 07:08:48;;;;;;;14.38;10.32;;;;;;;7.26;100.00;100603.16;5069232;28;20021;-77
2022/04/21 07:11:15;;;;;;;11.77;9.52;;;;;;;7.37;100.00;100594.31;5069369;28;20020;-76
2022/04/21 07:13:41;;;;;;;10.88;9.18;;;;;;;7.71;100.00;100610.59;5069297;28;20048;-77
2022/04/21 07:16:07;;;;;;;10.60;8.70;;;;;;;7.67;100.00;100589.00;5068914;28;20659;-75
2022/04/21 07:18:32;;;;;;;9.60;7.80;;;;;;;7.87;99.14;100597.69;5055290;28;20595;-76
2022/04/21 07:21:00;;;;;;;10.13;8.27;;;;;;;8.01;98.82;100618.06;5049279;28;20020;-76
2022/04/21 07:23:26;;;;;;;10.88;8.85;;;;;;;7.96;98.97;100616.97;5049518;28;20017;-75
2022/04/21 07:25:51;;;;;;;8.93;7.60;;;;;;;7.88;98.40;100607.19;5049349;28;20035;-75
2022/04/21 07:28:17;;;;;;;9.23;7.57;;;;;;;7.91;100.00;100609.91;5049294;28;20021;-76
2022/04/21 07:30:42;;;;;;;12.55;11.07;;;;;;;8.00;100.00;100596.63;5049600;28;20493;-75
2022/04/21 07:33:08;;;;;;;12.00;10.25;;;;;;;8.19;100.00;100612.97;5031565;28;20032;-76
2022/04/21 07:35:34;;;;;;;11.68;9.40;;;;;;;7.87;100.00;100555.69;5070038;28;20017;-76
2022/04/21 07:38:00;;;;;;;11.25;9.68;;;;;;;8.35;100.00;100615.47;5072733;28;20024;-77
2022/04/21 07:40:25;;;;;;;10.00;8.73;;;;;;;8.36;98.36;100593.19;5072407;28;20026;-76
2022/04/21 07:42:51;;;;;;;11.75;9.60;;;;;;;8.59;97.66;100607.19;5072386;28;20099;-76
2022/04/21 07:45:17;;;;;;;22.13;17.52;;;;;;;8.54;100.00;100593.22;5072620;28;20451;-75
2022/04/21 07:47:42;;;;;;;12.80;10.88;;;;;;;8.66;100.00;100614.41;5072522;28;20383;-75
2022/04/21 07:50:08;;;;;;;10.45;9.32;;;;;;;8.75;98.45;100598.50;5072299;28;20034;-75
2022/04/21 07:55:24;;;;;;;8.98;7.57;;;;;;;8.64;94.82;100573.97;5071710;28;20113;-76
2022/04/21 07:57:52;;;;;;;9.63;7.95;;;;;;;8.90;92.87;100604.34;5072340;28;20013;-76
2022/04/21 08:00:18;;;;;;;9.10;7.43;;;;;;;8.92;94.17;100599.25;5073099;28;20060;-76
2022/04/21 08:02:46;;;;;;;10.68;8.25;;;;;;;8.91;94.17;100574.34;5061764;28;20052;-76
2022/04/21 08:05:13;;;;;;;10.30;8.65;;;;;;;9.18;94.88;100615.00;5071349;28;20035;-76
2022/04/21 08:07:39;;;;;;;8.93;7.85;;;;;;;9.16;92.51;100602.06;5071915;28;20025;-77
2022/04/21 08:10:09;;;;;;;9.88;8.73;;;;;;;9.21;94.05;100604.84;5054249;28;20032;-77
2022/04/21 08:12:46;;;;;;;9.20;7.13;;;;;;;9.38;91.14;100621.94;5071871;28;20040;-76
2022/04/21 08:15:13;;;;;;;7.75;6.65;;;;;;;9.42;90.92;100617.81;5053989;28;20403;-76
2022/04/21 08:17:39;;;;;;;9.82;8.60;;;;;;;9.40;94.62;100627.16;5071928;28;20375;-76
2022/04/21 08:20:10;;;;;;;11.05;8.57;;;;;;;9.45;95.91;100620.50;5071683;28;20450;-76
2022/04/21 08:22:36;;;;;;;10.98;8.73;;;;;;;9.50;95.85;100624.16;5071797;28;20112;-76
2022/04/21 08:33:15;;;;;;;9.38;6.88;;;;;;;9.59;91.41;100621.09;5070993;28;20089;-75
2022/04/21 08:35:41;;;;;;;8.63;7.70;;;;;;;9.70;91.98;100631.88;5071766;28;20024;-76
2022/04/21 08:38:09;;;;;;;8.18;7.25;;;;;;;9.75;90.11;100619.19;5071728;28;20020;-76
2022/04/21 08:40:37;;;;;;;8.00;6.60;;;;;;;9.34;88.26;100576.22;5071561;28;20024;-76
2022/04/21 08:43:13;;;;;;;8.23;7.28;;;;;;;9.77;88.58;100633.03;5071247;28;20115;-76
2022/04/21 08:45:43;;;;;;;10.40;7.60;;;;;;;9.76;88.20;100608.03;5071203;28;20028;-76
2022/04/21 08:48:14;;;;;;;9.48;7.35;;;;;;;9.96;87.56;100632.13;5070900;28;20073;-76
2022/04/21 08:50:40;;;;;;;25.38;17.15;;;;;;;10.16;87.60;100638.97;5071475;28;20028;-76
2022/04/21 08:53:07;;;;;;;15.45;11.05;;;;;;;9.98;84.72;100595.25;5071405;28;20018;-77
2022/04/21 08:55:33;;;;;;;19.40;12.95;;;;;;;10.38;83.07;100634.75;5071345;28;20452;-77
2022/04/21 08:58:02;;;;;;;9.63;6.85;;;;;;;10.12;82.50;100621.63;5071015;28;20123;-77
2022/04/21 09:00:31;;;;;;;9.00;7.82;;;;;;;10.24;84.36;100628.97;5071190;28;20021;-76
2022/04/21 09:02:57;;;;;;;9.35;6.97;;;;;;;10.09;86.78;100603.41;5035269;28;20029;-76
2022/04/21 09:05:26;;;;;;;7.35;5.50;;;;;;;10.13;84.13;100636.28;5070796;28;20025;-76
2022/04/21 09:07:52;;;;;;;8.75;6.78;;;;;;;9.97;84.24;100601.22;5071433;28;20344;-76
2022/04/21 09:10:19;;;;;;;8.52;6.55;;;;;;;10.08;82.61;100624.91;5052953;28;20081;-77
2022/04/21 09:12:52;;;;;;;8.38;6.07;;;;;;;10.12;82.67;100624.19;5071048;28;20044;-77
2022/04/21 09:15:20;;;;;;;7.28;6.15;;;;;;;10.24;83.96;100631.53;5035516;28;20037;-78
2022/04/21 09:17:48;;;;;;;7.18;5.78;;;;;;;10.32;84.64;100609.53;5071378;28;20074;-78
2022/04/21 09:20:16;;;;;;;8.52;7.28;;;;;;;10.43;85.34;100612.56;5070818;28;20028;-79
2022/04/21 09:22:52;;;;;;;8.27;6.60;;;;;;;10.51;87.65;100610.28;5070450;28;20091;-78
2022/04/21 09:25:23;;;;;;;8.15;7.10;;;;;;;10.77;87.95;100629.38;5052883;28;20483;-75
2022/04/21 09:27:48;;;;;;;8.32;6.75;;;;;;;10.75;84.11;100599.16;5070732;28;20107;-80
2022/04/21 09:30:14;;;;;;;8.43;7.03;;;;;;;11.06;81.14;100619.25;5064860;28;20104;-74
2022/04/21 09:32:49;;;;;;;9.00;7.90;;;;;;;11.00;85.10;100600.94;5049918;28;20059;-75
2022/04/21 09:35:14;;;;;;;8.35;7.32;;;;;;;11.25;85.48;100612.19;5049999;28;20461;-74
2022/04/21 09:37:51;;;;;;;7.72;6.13;;;;;;;11.25;79.11;100622.53;5050600;28;20116;-76
2022/04/21 09:40:19;;;;;;;8.45;6.60;;;;;;;11.30;79.71;100623.56;5050168;28;20120;-74
2022/04/21 09:42:53;;;;;;;6.43;5.50;;;;;;;11.44;77.46;100611.13;5050168;28;20509;-74
2022/04/21 09:48:15;;;;;;;6.05;4.78;;;;;;;11.52;72.03;100614.03;5050388;28;20111;-76
2022/04/21 09:50:42;;;;;;;5.82;4.68;;;;;;;11.41;71.03;100604.16;5050213;28;20399;-76
2022/04/21 09:53:08;;;;;;;5.95;4.88;;;;;;;11.54;75.28;100589.97;5015401;28;20033;-77
2022/04/21 09:55:34;;;;;;;6.10;4.68;;;;;;;11.78;75.79;100607.16;5045429;28;20044;-74
2022/04/21 09:58:08;;;;;;;5.82;4.57;;;;;;;11.64;69.33;100601.53;5049851;28;20103;-76
2022/04/21 10:00:38;;;;;;;6.10;4.88;;;;;;;11.97;71.28;100586.31;5050025;28;20128;-77
2022/04/21 10:03:05;;;;;;;6.20;5.10;;;;;;;12.11;74.55;100594.53;5049795;28;20108;-76
2022/04/21 10:05:32;;;;;;;6.20;4.80;;;;;;;12.28;71.26;100584.69;5048313;28;20032;-77
2022/04/21 10:08:09;;;;;;;6.85;5.05;;;;;;;12.43;73.78;100586.00;4989696;28;20099;-76
2022/04/21 10:10:37;;;;;;;7.90;5.72;;;;;;;12.44;73.18;100574.81;5048216;28;20410;-75
2022/04/21 10:13:04;;;;;;;7.25;4.97;;;;;;;12.41;72.63;100531.59;5045192;28;20603;-78
2022/04/21 10:15:30;;;;;;;6.00;5.03;;;;;;;12.43;71.42;100531.63;5049610;28;20074;-74
2022/04/21 10:17:56;;;;;;;6.70;5.68;;;;;;;12.70;71.77;100575.63;5045328;28;20025;-76
2022/04/21 10:20:23;;;;;;;5.70;4.70;;;;;;;12.75;73.46;100562.81;5049003;28;20079;-76
2022/04/21 10:22:50;;;;;;;7.65;5.28;;;;;;;12.84;76.50;100563.06;5048940;28;20068;-76
2022/04/21 10:25:18;;;;;;;5.72;4.80;;;;;;;12.82;71.02;100522.41;5030486;28;20059;-78
2022/04/21 10:27:49;;;;;;;7.93;5.10;;;;;;;13.14;72.53;100551.81;5049493;28;20020;-77
2022/04/21 10:30:25;;;;;;;5.93;5.03;;;;;;;13.21;72.24;100571.91;5048959;28;20029;-76
2022/04/21 10:32:59;;;;;;;6.07;4.80;;;;;;;13.28;72.88;100557.38;5049454;28;20111;-74
2022/04/21 10:35:24;;;;;;;6.07;4.80;;;;;;;13.10;74.38;100527.53;5049666;28;20016;-75
2022/04/21 10:38:14;;;;;;;6.10;4.60;;;;;;;12.88;76.13;100554.53;5049332;28;20020;-75
2022/04/21 10:41:07;;;;;;;6.22;4.47;;;;;;;13.10;74.25;100557.75;5049313;28;20162;-75
2022/04/21 10:43:48;;;;;;;5.93;4.70;;;;;;;12.90;73.19;100520.91;5048370;28;20041;-76
2022/04/21 10:46:18;;;;;;;8.02;4.95;;;;;;;13.17;76.89;100535.47;5028784;28;20466;-73
2022/04/21 10:48:44;;;;;;;5.80;4.60;;;;;;;13.43;73.42;100544.88;5047527;28;20171;-74
2022/04/21 10:51:33;;;;;;;4.90;4.05;;;;;;;13.36;70.85;100521.31;5036386;28;20056;-73
2022/04/21 10:59:30;;;;;;;4.38;3.90;;;;;;;13.99;68.98;100540.19;4968166;28;20113;-74
2022/04/21 11:02:09;;;;;;;8.00;5.20;;;;;;;14.18;68.17;100523.31;4968225;28;20463;-74
2022/04/21 11:04:35;;;;;;;6.22;4.60;;;;;;;14.29;69.91;100539.16;4968385;28;20035;-73
2022/04/21 11:07:13;;;;;;;6.95;5.05;;;;;;;14.43;72.30;100549.84;4967726;28;20117;-73
2022/04/21 11:09:44;;;;;;;6.47;4.47;;;;;;;14.43;73.14;100537.75;4967969;28;20139;-72
2022/04/21 11:12:14;;;;;;;6.63;4.38;;;;;;;14.48;71.07;100511.84;4971213;28;20410;-75
2022/04/21 11:14:39;;;;;;;;;;;;;;;14.62;72.35;100538.16;4956119;28;20121;-77
2022/04/21 11:17:08;;;;;;;4.50;3.38;;;;;;;14.77;69.77;100528.13;4970236;28;20494;-78
2022/04/21 11:19:36;;;;;;;4.68;3.97;;;;;;;14.63;71.01;100535.59;4970375;28;20042;-75
2022/04/21 11:22:01;;;;;;;5.13;4.00;;;;;;;14.72;69.82;100529.75;4970822;28;20038;-75
2022/04/21 11:24:27;;;;;;;3.65;3.00;;;;;;;14.54;65.46;100509.41;4968830;28;20040;-75
2022/04/21 11:26:58;;;;;;;4.90;3.80;;;;;;;14.68;71.14;100527.94;4967987;28;20060;-77
2022/04/21 11:29:23;;;;;;;4.10;3.35;;;;;;;14.55;69.55;100505.97;4962043;28;20465;-76
2022/04/21 11:31:55;;;;;;;4.90;3.88;;;;;;;14.38;71.96;100497.78;5035076;28;20057;-75
2022/04/21 11:34:22;;;;;;;3.63;3.25;;;;;;;14.86;67.11;100522.22;5045073;28;20037;-78
2022/04/21 11:36:48;;;;;;;4.85;3.33;;;;;;;14.98;65.28;100512.06;5050182;28;20082;-76
2022/04/21 11:39:14;;;;;;;5.07;3.25;;;;;;;15.22;65.21;100512.53;5047754;28;20442;-73
2022/04/21 11:41:44;;;;;;;3.83;3.00;;;;;;;14.86;64.36;100437.31;5033839;28;20036;-78
2022/04/21 11:44:11;;;;;;;4.15;2.90;;;;;;;15.39;64.40;100502.41;5048193;28;20028;-77
2022/04/21 11:46:40;;;;;;;3.17;2.88;;;;;;;15.21;62.50;100472.63;5050853;28;20033;-76
2022/04/21 11:49:08;;;;;;;3.40;2.65;;;;;;;15.51;61.65;100492.22;5051511;28;20029;-77
2022/04/21 11:51:34;;;;;;;4.07;3.10;;;;;;;15.62;66.04;100490.66;5046847;28;20025;-74
2022/04/21 11:54:04;;;;;;;3.53;2.88;;;;;;;15.81;64.48;100485.75;5051467;28;20017;-74
2022/04/21 11:56:29;;;;;;;3.22;2.83;;;;;;;15.99;60.57;100486.06;5033213;28;20027;-75
2022/04/21 11:58:55;;;;;;;3.35;2.75;;;;;;;15.90;57.27;100465.13;5051274;28;20017;-76
2022/04/21 12:06:55;;;;;;;4.05;3.30;;;;;;;15.75;63.53;100463.13;5048782;28;20044;-76
2022/04/21 12:09:22;;;;;;;4.20;2.93;;;;;;;15.54;64.29;100461.06;5050965;28;20423;-78
2022/04/21 12:11:51;;;;;;;3.88;3.00;;;;;;;15.25;60.38;100440.59;5013832;28;20051;-74
2022/04/21 12:14:18;;;;;;;3.95;3.10;;;;;;;15.42;62.01;100461.72;5047428;28;20035;-74
2022/04/21 12:16:54;;;;;;;3.55;3.20;;;;;;;15.24;65.81;100438.88;5049870;28;20059;-74